createdAt,value
2018-01-27T00:00:00.106Z,52.83
2018-01-27T00:01:03.228Z,50.45
2018-01-27T00:02:05.719Z,56.03
2018-01-27T00:03:08.212Z,48.15
2018-01-27T00:04:10.729Z,52.40
2018-01-27T00:05:13.226Z,45.53
2018-01-27T00:06:17.219Z,58.47
2018-01-27T00:07:20.063Z,56.15
2018-01-27T00:08:22.573Z,53.53
2018-01-27T00:09:25.116Z,49.05
2018-01-27T00:10:27.664Z,55.28
2018-01-27T00:11:31.078Z,46.90
2018-01-27T00:12:33.566Z,58.35
2018-01-27T00:13:36.071Z,51.00
2018-01-27T00:14:38.572Z,52.45
2018-01-27T00:15:41.840Z,51.60
2018-01-27T00:16:45.136Z,51.03
2018-01-27T00:17:48.403Z,55.58
2018-01-27T00:18:50.884Z,47.55
2018-01-27T00:19:53.364Z,45.65
2018-01-27T00:20:56.673Z,45.95
2018-01-27T00:21:59.179Z,53.15
2018-01-27T00:23:02.873Z,43.40
2018-01-27T00:24:05.340Z,56.55
2018-01-27T00:25:07.840Z,53.38
2018-01-27T00:26:10.336Z,47.90
2018-01-27T00:27:12.843Z,46.88
2018-01-27T00:28:15.341Z,55.25
2018-01-27T00:29:17.832Z,45.72
2018-01-27T00:30:20.351Z,45.35
2018-01-27T00:31:23.865Z,53.80
2018-01-27T00:32:26.375Z,48.87
2018-01-27T00:33:28.920Z,56.88
2018-01-27T00:34:31.402Z,49.50
2018-01-27T00:35:33.918Z,47.97
2018-01-27T00:36:36.449Z,48.60
2018-01-27T00:37:38.937Z,53.95
2018-01-27T00:38:42.215Z,53.78
2018-01-27T00:39:44.697Z,55.20
2018-01-27T00:40:47.958Z,48.72
2018-01-27T00:41:50.458Z,47.20
2018-01-27T00:42:53.706Z,64.03
2018-01-27T00:43:56.210Z,54.80
2018-01-27T00:44:58.679Z,50.45
2018-01-27T00:46:01.991Z,51.70
2018-01-27T00:47:04.484Z,55.03
2018-01-27T00:48:06.996Z,59.35
2018-01-27T00:49:09.475Z,53.80
2018-01-27T00:50:11.984Z,56.95
2018-01-27T00:51:14.468Z,62.78
2018-01-27T00:52:16.961Z,58.47
2018-01-27T00:53:19.485Z,54.78
2018-01-27T00:54:22.060Z,55.53
2018-01-27T00:55:24.535Z,53.17
2018-01-27T00:56:27.027Z,56.05
2018-01-27T00:57:29.569Z,61.05
2018-01-27T00:58:32.084Z,58.00
2018-01-27T00:59:34.563Z,70.47
2018-01-27T01:00:37.082Z,54.17
2018-01-27T01:01:39.586Z,53.47
2018-01-27T01:02:42.058Z,55.45
2018-01-27T01:03:44.545Z,60.80
2018-01-27T01:04:47.048Z,59.30
2018-01-27T01:05:50.287Z,68.35
2018-01-27T01:06:52.761Z,54.78
2018-01-27T01:07:55.262Z,67.60
2018-01-27T01:08:57.743Z,54.92
2018-01-27T01:10:00.983Z,64.07
2018-01-27T01:11:03.456Z,54.55
2018-01-27T01:12:05.985Z,59.47
2018-01-27T01:13:08.487Z,54.75
2018-01-27T01:14:11.015Z,57.72
2018-01-27T01:15:14.254Z,66.28
2018-01-27T01:16:16.725Z,70.93
2018-01-27T01:17:19.202Z,60.55
2018-01-27T01:18:21.682Z,72.32
2018-01-27T01:19:24.952Z,61.25
2018-01-27T01:20:27.436Z,57.80
2018-01-27T01:21:29.900Z,58.20
2018-01-27T01:22:32.379Z,64.35
2018-01-27T01:23:34.860Z,62.28
2018-01-27T01:24:37.371Z,68.00
2018-01-27T01:25:39.852Z,61.55
2018-01-27T01:26:43.115Z,67.03
2018-01-27T01:27:46.360Z,60.00
2018-01-27T01:28:48.845Z,66.43
2018-01-27T01:29:51.339Z,59.60
2018-01-27T01:30:54.638Z,65.35
2018-01-27T01:31:57.139Z,65.80
2018-01-27T01:33:00.550Z,53.85
2018-01-27T01:34:03.036Z,63.97
2018-01-27T01:35:05.548Z,59.65
2018-01-27T01:36:08.020Z,62.38
2018-01-27T01:37:10.549Z,59.35
2018-01-27T01:38:13.016Z,52.97
2018-01-27T01:39:15.510Z,64.90
2018-01-27T01:40:18.020Z,66.95
2018-01-27T01:41:20.513Z,57.88
2018-01-27T01:42:28.625Z,58.55
2018-01-27T01:43:36.795Z,65.03
2018-01-27T01:44:39.288Z,68.90
2018-01-27T01:45:41.775Z,60.25
2018-01-27T01:46:44.389Z,63.20
2018-01-27T01:47:47.629Z,67.28
2018-01-27T01:48:50.098Z,59.75
2018-01-27T01:49:52.571Z,54.33
2018-01-27T01:50:55.074Z,65.30
2018-01-27T01:51:58.325Z,74.40
2018-01-27T01:53:00.812Z,61.80
2018-01-27T01:54:03.294Z,58.15
2018-01-27T01:55:05.777Z,61.83
2018-01-27T01:56:09.069Z,73.32
2018-01-27T01:57:12.298Z,59.53
2018-01-27T01:58:14.785Z,62.25
2018-01-27T01:59:17.254Z,56.90
2018-01-27T02:00:19.751Z,61.42
2018-01-27T02:01:22.239Z,64.53
2018-01-27T02:02:24.727Z,73.28
2018-01-27T02:03:27.208Z,66.07
2018-01-27T02:04:29.692Z,58.72
2018-01-27T02:05:32.164Z,59.97
2018-01-27T02:06:34.681Z,61.95
2018-01-27T02:07:37.932Z,64.75
2018-01-27T02:08:40.401Z,60.65
2018-01-27T02:09:42.875Z,65.45
2018-01-27T02:10:45.371Z,71.55
2018-01-27T02:11:47.863Z,68.78
2018-01-27T02:12:50.440Z,59.53
2018-01-27T02:13:52.915Z,68.35
2018-01-27T02:14:55.392Z,69.00
2018-01-27T02:15:57.905Z,66.00
2018-01-27T02:17:00.405Z,74.22
2018-01-27T02:18:02.906Z,63.13
2018-01-27T02:19:05.385Z,62.13
2018-01-27T02:20:07.891Z,66.55
2018-01-27T02:21:10.376Z,72.90
2018-01-27T02:22:13.644Z,63.38
2018-01-27T02:23:16.126Z,75.60
2018-01-27T02:24:18.594Z,64.97
2018-01-27T02:25:21.104Z,60.88
2018-01-27T02:26:24.343Z,66.30
2018-01-27T02:27:26.895Z,68.45
2018-01-27T02:28:29.377Z,67.75
2018-01-27T02:29:31.849Z,67.03
2018-01-27T02:30:35.089Z,68.28
2018-01-27T02:31:38.360Z,58.40
2018-01-27T02:32:40.984Z,65.55
2018-01-27T02:33:43.481Z,65.32
2018-01-27T02:34:45.989Z,62.92
2018-01-27T02:35:49.243Z,68.28
2018-01-27T02:36:51.728Z,65.28
2018-01-27T02:37:54.219Z,67.40
2018-01-27T02:38:57.591Z,66.60
2018-01-27T02:40:00.075Z,68.30
2018-01-27T02:41:03.330Z,63.05
2018-01-27T02:42:05.815Z,67.85
2018-01-27T02:43:08.751Z,63.72
2018-01-27T02:44:11.248Z,66.90
2018-01-27T02:45:13.736Z,58.95
2018-01-27T02:46:16.240Z,70.03
2018-01-27T02:47:19.490Z,61.45
2018-01-27T02:48:21.959Z,66.20
2018-01-27T02:49:24.808Z,76.70
2018-01-27T02:50:27.560Z,68.40
2018-01-27T02:51:30.131Z,68.95
2018-01-27T02:52:32.616Z,64.10
2018-01-27T02:53:35.089Z,66.37
2018-01-27T02:54:37.585Z,70.35
2018-01-27T02:55:40.068Z,73.15
2018-01-27T02:56:42.555Z,75.55
2018-01-27T02:57:45.022Z,68.05
2018-01-27T02:58:47.494Z,69.55
2018-01-27T02:59:49.988Z,70.03
2018-01-27T03:00:52.481Z,71.07
2018-01-27T03:01:54.969Z,69.20
2018-01-27T03:02:57.436Z,79.55
2018-01-27T03:03:59.936Z,79.45
2018-01-27T03:05:03.338Z,74.30
2018-01-27T03:06:05.812Z,67.62
2018-01-27T03:07:08.291Z,73.93
2018-01-27T03:08:11.542Z,65.72
2018-01-27T03:09:14.032Z,67.10
2018-01-27T03:10:16.526Z,72.90
2018-01-27T03:11:19.769Z,73.87
2018-01-27T03:12:22.236Z,77.03
2018-01-27T03:13:24.722Z,65.28
2018-01-27T03:14:27.201Z,90.45
2018-01-27T03:15:29.719Z,62.40
2018-01-27T03:16:32.219Z,68.78
2018-01-27T03:17:34.704Z,64.32
2018-01-27T03:18:37.198Z,58.95
2018-01-27T03:19:40.429Z,73.82
2018-01-27T03:20:42.919Z,80.07
2018-01-27T03:21:45.410Z,75.90
2018-01-27T03:22:48.700Z,76.07
2018-01-27T03:23:51.177Z,75.57
2018-01-27T03:24:53.654Z,68.18
2018-01-27T03:25:56.894Z,68.85
2018-01-27T03:26:59.377Z,76.37
2018-01-27T03:28:01.870Z,66.43
2018-01-27T03:29:04.350Z,73.70
2018-01-27T03:30:07.589Z,83.68
2018-01-27T03:31:10.206Z,75.80
2018-01-27T03:32:13.477Z,73.57
2018-01-27T03:33:16.349Z,92.75
2018-01-27T03:34:18.835Z,81.03
2018-01-27T03:35:21.325Z,65.00
2018-01-27T03:36:25.336Z,74.30
2018-01-27T03:37:27.823Z,72.82
2018-01-27T03:38:30.310Z,77.12
2018-01-27T03:39:32.789Z,70.90
2018-01-27T03:40:35.259Z,77.28
2018-01-27T03:41:37.757Z,76.22
2018-01-27T03:42:40.258Z,75.15
2018-01-27T03:43:43.492Z,75.15
2018-01-27T03:44:45.974Z,65.95
2018-01-27T03:45:49.205Z,76.20
2018-01-27T03:46:51.712Z,81.97
2018-01-27T03:47:54.221Z,68.65
2018-01-27T03:48:56.707Z,76.30
2018-01-27T03:49:59.953Z,76.65
2018-01-27T03:51:02.424Z,69.95
2018-01-27T03:52:04.903Z,77.28
2018-01-27T03:53:07.385Z,72.78
2018-01-27T03:54:09.941Z,72.12
2018-01-27T03:55:12.426Z,76.10
2018-01-27T03:56:15.656Z,66.22
2018-01-27T03:57:18.129Z,72.00
2018-01-27T03:58:20.600Z,78.62
2018-01-27T03:59:23.106Z,68.72
2018-01-27T04:00:25.584Z,64.62
2018-01-27T04:01:28.049Z,67.55
2018-01-27T04:02:30.536Z,57.85
2018-01-27T04:03:33.021Z,68.35
2018-01-27T04:04:36.285Z,70.68
2018-01-27T04:05:38.759Z,73.25
2018-01-27T04:06:41.906Z,62.60
2018-01-27T04:07:44.387Z,74.68
2018-01-27T04:08:46.868Z,69.03
2018-01-27T04:09:49.374Z,74.47
2018-01-27T04:10:51.879Z,69.50
2018-01-27T04:11:54.355Z,85.43
2018-01-27T04:12:56.826Z,85.60
2018-01-27T04:13:59.337Z,70.90
2018-01-27T04:15:01.844Z,74.60
2018-01-27T04:16:04.354Z,75.80
2018-01-27T04:17:06.878Z,76.85
2018-01-27T04:18:10.135Z,74.90
2018-01-27T04:19:12.616Z,66.12
2018-01-27T04:20:15.122Z,74.78
2018-01-27T04:21:17.602Z,74.72
2018-01-27T04:22:20.103Z,78.87
2018-01-27T04:23:22.578Z,80.90
2018-01-27T04:24:25.080Z,72.12
2018-01-27T04:25:28.363Z,73.20
2018-01-27T04:26:30.883Z,69.35
2018-01-27T04:27:34.138Z,74.95
2018-01-27T04:28:37.397Z,87.37
2018-01-27T04:29:39.884Z,71.78
2018-01-27T04:30:42.358Z,77.10
2018-01-27T04:31:44.868Z,75.15
2018-01-27T04:32:47.382Z,73.93
2018-01-27T04:33:49.856Z,75.00
2018-01-27T04:34:52.333Z,87.07
2018-01-27T04:35:54.815Z,85.40
2018-01-27T04:36:58.904Z,78.40
2018-01-27T04:38:01.393Z,78.07
2018-01-27T04:39:04.648Z,80.25
2018-01-27T04:40:07.142Z,94.82
2018-01-27T04:41:09.652Z,75.53
2018-01-27T04:42:12.202Z,74.97
2018-01-27T04:43:14.703Z,78.75
2018-01-27T04:44:17.357Z,75.90
2018-01-27T04:45:19.930Z,81.45
2018-01-27T04:46:22.416Z,76.25
2018-01-27T04:47:24.889Z,85.28
2018-01-27T04:48:27.391Z,88.93
2018-01-27T04:49:30.657Z,78.80
2018-01-27T04:50:33.128Z,84.75
2018-01-27T04:51:35.615Z,82.70
2018-01-27T04:52:38.484Z,79.57
2018-01-27T04:53:40.953Z,85.93
2018-01-27T04:54:43.427Z,85.35
2018-01-27T04:55:46.973Z,81.32
2018-01-27T04:56:49.474Z,87.68
2018-01-27T04:57:51.960Z,84.32
2018-01-27T04:58:54.450Z,82.03
2018-01-27T04:59:56.941Z,90.05
2018-01-27T05:00:59.413Z,75.10
2018-01-27T05:02:01.904Z,86.05
2018-01-27T05:03:04.380Z,85.80
2018-01-27T05:04:07.433Z,85.30
2018-01-27T05:05:09.979Z,89.95
2018-01-27T05:06:12.484Z,90.80
2018-01-27T05:07:15.133Z,90.60
2018-01-27T05:08:17.608Z,88.62
2018-01-27T05:09:20.088Z,92.68
2018-01-27T05:10:22.587Z,86.30
2018-01-27T05:11:25.075Z,82.10
2018-01-27T05:12:27.562Z,91.05
2018-01-27T05:13:30.040Z,81.40
2018-01-27T05:14:32.536Z,92.12
2018-01-27T05:15:35.780Z,82.32
2018-01-27T05:16:38.260Z,82.35
2018-01-27T05:17:40.740Z,92.97
2018-01-27T05:18:43.982Z,105.12
2018-01-27T05:19:47.000Z,77.75
2018-01-27T05:20:49.508Z,95.85
2018-01-27T05:21:52.094Z,83.35
2018-01-27T05:22:55.351Z,87.90
2018-01-27T05:23:58.691Z,91.65
2018-01-27T05:25:01.161Z,92.70
2018-01-27T05:26:03.654Z,99.00
2018-01-27T05:27:06.178Z,103.65
2018-01-27T05:28:08.651Z,82.68
2018-01-27T05:29:11.155Z,74.30
2018-01-27T05:30:13.626Z,100.97
2018-01-27T05:31:16.100Z,92.55
2018-01-27T05:32:18.599Z,85.12
2018-01-27T05:33:21.849Z,80.60
2018-01-27T05:34:24.328Z,90.43
2018-01-27T05:35:26.809Z,92.72
2018-01-27T05:36:29.293Z,84.07
2018-01-27T05:37:31.782Z,85.10
2018-01-27T05:38:35.024Z,95.90
2018-01-27T05:39:37.495Z,82.93
2018-01-27T05:40:39.979Z,84.45
2018-01-27T05:41:42.456Z,88.65
2018-01-27T05:42:44.936Z,84.22
2018-01-27T05:43:48.369Z,96.93
2018-01-27T05:44:50.838Z,88.75
2018-01-27T05:45:54.207Z,87.65
2018-01-27T05:46:57.605Z,88.72
2018-01-27T05:48:00.090Z,82.32
2018-01-27T05:49:02.646Z,86.53
2018-01-27T05:50:05.909Z,92.10
2018-01-27T05:51:09.149Z,87.40
2018-01-27T05:52:11.631Z,84.68
2018-01-27T05:53:14.116Z,83.65
2018-01-27T05:54:17.547Z,92.97
2018-01-27T05:55:20.856Z,83.65
2018-01-27T05:56:24.092Z,96.05
2018-01-27T05:57:26.568Z,92.45
2018-01-27T05:58:29.050Z,85.65
2018-01-27T05:59:32.342Z,90.22
2018-01-27T06:00:35.591Z,87.00
2018-01-27T06:01:38.069Z,92.70
2018-01-27T06:02:40.534Z,80.10
2018-01-27T06:03:43.020Z,102.05
2018-01-27T06:04:45.496Z,73.15
2018-01-27T06:05:47.997Z,81.87
2018-01-27T06:06:51.244Z,74.75
2018-01-27T06:07:53.733Z,72.30
2018-01-27T06:08:56.981Z,77.00
2018-01-27T06:09:59.457Z,76.82
2018-01-27T06:11:01.944Z,77.12
2018-01-27T06:12:04.425Z,83.70
2018-01-27T06:13:06.909Z,69.47
2018-01-27T06:14:09.403Z,77.75
2018-01-27T06:15:11.887Z,74.97
2018-01-27T06:16:14.371Z,77.15
2018-01-27T06:17:16.851Z,67.93
2018-01-27T06:18:19.323Z,72.47
2018-01-27T06:19:21.829Z,74.45
2018-01-27T06:20:24.336Z,83.12
2018-01-27T06:21:26.821Z,72.00
2018-01-27T06:22:29.303Z,68.87
2018-01-27T06:23:31.777Z,88.93
2018-01-27T06:24:34.256Z,76.65
2018-01-27T06:25:36.742Z,86.80
2018-01-27T06:26:39.975Z,83.62
2018-01-27T06:27:42.458Z,76.37
2018-01-27T06:28:44.930Z,83.93
2018-01-27T06:29:47.402Z,87.25
2018-01-27T06:30:49.904Z,95.35
2018-01-27T06:31:52.387Z,83.55
2018-01-27T06:32:55.639Z,89.30
2018-01-27T06:33:58.116Z,92.12
2018-01-27T06:35:00.594Z,90.25
2018-01-27T06:36:03.104Z,80.43
2018-01-27T06:37:05.583Z,79.90
2018-01-27T06:38:08.823Z,92.78
2018-01-27T06:39:11.409Z,78.35
2018-01-27T06:40:14.695Z,76.68
2018-01-27T06:41:17.193Z,86.43
2018-01-27T06:42:19.689Z,81.80
2018-01-27T06:43:22.186Z,83.10
2018-01-27T06:44:24.668Z,83.65
2018-01-27T06:45:27.156Z,103.75
2018-01-27T06:46:29.752Z,78.70
2018-01-27T06:47:32.254Z,92.25
2018-01-27T06:48:34.749Z,92.32
2018-01-27T06:49:37.235Z,78.28
2018-01-27T06:50:39.720Z,72.28
2018-01-27T06:51:42.955Z,84.65
2018-01-27T06:52:45.462Z,80.30
2018-01-27T06:53:47.964Z,81.68
2018-01-27T06:54:50.444Z,83.40
2018-01-27T06:55:52.923Z,79.40
2018-01-27T06:56:55.392Z,75.80
2018-01-27T06:57:57.888Z,86.95
2018-01-27T06:59:00.381Z,75.40
2018-01-27T07:00:02.872Z,84.68
2018-01-27T07:01:06.120Z,78.10
2018-01-27T07:02:08.621Z,75.50
2018-01-27T07:03:12.039Z,79.03
2018-01-27T07:04:14.591Z,83.62
2018-01-27T07:05:17.070Z,89.75
2018-01-27T07:06:20.308Z,77.85
2018-01-27T07:07:22.790Z,73.68
2018-01-27T07:08:25.272Z,81.82
2018-01-27T07:09:27.774Z,76.72
2018-01-27T07:10:30.258Z,84.03
2018-01-27T07:11:32.743Z,74.95
2018-01-27T07:12:35.223Z,79.05
2018-01-27T07:13:37.696Z,74.43
2018-01-27T07:14:40.204Z,72.97
2018-01-27T07:15:43.450Z,82.68
2018-01-27T07:16:45.940Z,76.85
2018-01-27T07:17:48.448Z,75.40
2018-01-27T07:18:51.855Z,76.57
2018-01-27T07:19:54.345Z,88.80
2018-01-27T07:20:56.864Z,78.32
2018-01-27T07:21:59.349Z,77.20
2018-01-27T07:23:02.609Z,83.15
2018-01-27T07:24:05.091Z,82.15
2018-01-27T07:25:07.600Z,82.25
2018-01-27T07:26:10.188Z,80.97
2018-01-27T07:27:13.545Z,85.20
2018-01-27T07:28:17.828Z,90.32
2018-01-27T07:29:20.333Z,85.80
2018-01-27T07:30:22.820Z,92.70
2018-01-27T07:31:25.301Z,74.78
2018-01-27T07:32:27.803Z,84.97
2018-01-27T07:33:30.303Z,92.55
2018-01-27T07:34:33.580Z,87.32
2018-01-27T07:35:36.209Z,85.25
2018-01-27T07:36:39.510Z,79.00
2018-01-27T07:37:42.024Z,96.05
2018-01-27T07:38:45.325Z,89.85
2018-01-27T07:39:47.809Z,93.82
2018-01-27T07:40:50.309Z,88.30
2018-01-27T07:41:52.813Z,84.50
2018-01-27T07:42:56.116Z,94.22
2018-01-27T07:43:59.361Z,93.07
2018-01-27T07:45:01.839Z,83.80
2018-01-27T07:46:04.323Z,98.45
2018-01-27T07:47:06.811Z,95.75
2018-01-27T07:48:10.238Z,83.55
2018-01-27T07:49:12.894Z,84.47
2018-01-27T07:50:15.373Z,98.60
2018-01-27T07:51:17.868Z,90.15
2018-01-27T07:52:20.346Z,87.75
2018-01-27T07:53:22.852Z,94.72
2018-01-27T07:54:25.333Z,100.72
2018-01-27T07:55:27.828Z,83.95
2018-01-27T07:56:30.320Z,94.28
2018-01-27T07:57:32.788Z,92.30
2018-01-27T07:58:35.273Z,91.32
2018-01-27T07:59:37.759Z,93.53
2018-01-27T08:00:40.248Z,83.80
2018-01-27T08:01:43.496Z,96.25
2018-01-27T08:02:46.032Z,93.32
2018-01-27T08:03:48.502Z,94.13
2018-01-27T08:04:50.985Z,83.07
2018-01-27T08:05:54.317Z,90.12
2018-01-27T08:06:56.812Z,96.07
2018-01-27T08:08:00.076Z,93.60
2018-01-27T08:09:02.563Z,93.47
2018-01-27T08:10:05.886Z,90.28
2018-01-27T08:11:08.495Z,85.55
2018-01-27T08:12:11.113Z,87.50
2018-01-27T08:13:13.595Z,86.70
2018-01-27T08:14:16.087Z,84.07
2018-01-27T08:15:18.555Z,97.80
2018-01-27T08:16:21.048Z,97.35
2018-01-27T08:17:23.535Z,82.43
2018-01-27T08:18:26.024Z,88.60
2018-01-27T08:19:29.269Z,90.30
2018-01-27T08:20:31.767Z,80.68
2018-01-27T08:21:35.189Z,83.12
2018-01-27T08:22:37.701Z,92.82
2018-01-27T08:23:40.181Z,86.93
2018-01-27T08:24:42.640Z,84.65
2018-01-27T08:25:45.139Z,86.37
2018-01-27T08:26:47.604Z,96.18
2018-01-27T08:27:50.105Z,87.00
2018-01-27T08:28:53.371Z,86.32
2018-01-27T08:29:55.848Z,80.55
2018-01-27T08:30:59.131Z,80.20
2018-01-27T08:32:01.617Z,74.43
2018-01-27T08:33:04.897Z,72.07
2018-01-27T08:34:08.196Z,79.45
2018-01-27T08:35:11.547Z,74.65
2018-01-27T08:36:14.065Z,82.15
2018-01-27T08:37:17.351Z,78.85
2018-01-27T08:38:20.608Z,86.68
2018-01-27T08:39:23.087Z,77.28
2018-01-27T08:40:25.586Z,92.05
2018-01-27T08:41:28.071Z,78.28
2018-01-27T08:42:30.572Z,83.15
2018-01-27T08:43:33.096Z,88.12
2018-01-27T08:44:36.356Z,76.93
2018-01-27T08:45:38.915Z,87.85
2018-01-27T08:46:41.360Z,77.95
2018-01-27T08:47:43.888Z,75.60
2018-01-27T08:48:47.156Z,82.50
2018-01-27T08:49:49.682Z,78.72
2018-01-27T08:50:52.181Z,71.65
2018-01-27T08:51:54.674Z,77.78
2018-01-27T08:52:57.164Z,73.93
2018-01-27T08:54:00.431Z,71.55
2018-01-27T08:55:02.944Z,71.43
2018-01-27T08:56:05.446Z,70.45
2018-01-27T08:57:09.702Z,69.97
2018-01-27T08:58:13.045Z,74.57
2018-01-27T08:59:15.554Z,73.28
2018-01-27T09:00:18.023Z,81.00
2018-01-27T09:01:21.277Z,64.80
2018-01-27T09:02:23.752Z,66.78
2018-01-27T09:03:26.252Z,76.28
2018-01-27T09:04:28.736Z,67.22
2018-01-27T09:05:31.225Z,65.60
2018-01-27T09:06:33.738Z,60.85
2018-01-27T09:07:36.252Z,63.80
2018-01-27T09:08:38.729Z,73.45
2018-01-27T09:09:41.216Z,60.78
2018-01-27T09:10:43.715Z,68.45
2018-01-27T09:11:46.214Z,60.30
2018-01-27T09:12:48.812Z,59.67
2018-01-27T09:13:51.292Z,56.03
2018-01-27T09:14:53.794Z,61.90
2018-01-27T09:15:56.272Z,58.92
2018-01-27T09:16:58.898Z,53.95
2018-01-27T09:18:01.394Z,56.17
2018-01-27T09:19:03.925Z,55.95
2018-01-27T09:20:07.197Z,55.63
2018-01-27T09:21:10.688Z,57.88
2018-01-27T09:22:13.677Z,59.33
2018-01-27T09:23:16.964Z,53.10
2018-01-27T09:24:19.466Z,57.95
2018-01-27T09:25:21.950Z,50.70
2018-01-27T09:26:24.445Z,50.55
2018-01-27T09:27:26.961Z,52.97
2018-01-27T09:28:30.595Z,51.05
2018-01-27T09:29:33.111Z,55.12
2018-01-27T09:30:35.607Z,53.25
2018-01-27T09:31:38.250Z,55.38
2018-01-27T09:32:40.802Z,53.13
2018-01-27T09:33:43.286Z,53.05
2018-01-27T09:34:45.780Z,57.78
2018-01-27T09:35:49.032Z,51.78
2018-01-27T09:36:51.527Z,50.25
2018-01-27T09:37:54.034Z,50.10
2018-01-27T09:38:56.532Z,44.70
2018-01-27T09:39:59.021Z,51.53
2018-01-27T09:41:01.507Z,53.72
2018-01-27T09:42:04.012Z,48.92
2018-01-27T09:43:06.906Z,50.88
2018-01-27T09:44:09.516Z,53.78
2018-01-27T09:45:12.235Z,40.95
2018-01-27T09:46:14.731Z,42.83
2018-01-27T09:47:17.232Z,42.95
2018-01-27T09:48:19.728Z,47.53
2018-01-27T09:49:22.376Z,41.05
2018-01-27T09:50:24.888Z,45.55
2018-01-27T09:51:27.802Z,48.30
2018-01-27T09:52:30.303Z,45.92
2018-01-27T09:53:32.822Z,35.95
2018-01-27T09:54:35.320Z,38.40
2018-01-27T09:55:37.835Z,38.85
2018-01-27T09:56:42.063Z,36.00
2018-01-27T09:57:45.342Z,37.78
2018-01-27T09:58:48.650Z,34.53
2018-01-27T09:59:51.171Z,37.83
2018-01-27T10:00:53.708Z,42.10
2018-01-27T10:01:56.216Z,35.10
2018-01-27T10:02:58.715Z,30.90
2018-01-27T10:04:01.999Z,30.42
2018-01-27T10:05:05.281Z,34.65
2018-01-27T10:06:07.813Z,31.25
2018-01-27T10:07:10.478Z,35.33
2018-01-27T10:08:13.779Z,29.67
2018-01-27T10:09:16.262Z,31.80
2018-01-27T10:10:18.811Z,29.27
2018-01-27T10:11:22.115Z,25.15
2018-01-27T10:12:24.600Z,25.92
2018-01-27T10:13:27.111Z,28.70
2018-01-27T10:14:30.377Z,26.52
2018-01-27T10:15:32.932Z,33.83
2018-01-27T10:16:35.398Z,31.67
2018-01-27T10:17:37.879Z,42.03
2018-01-27T10:18:40.380Z,35.45
2018-01-27T10:19:42.885Z,38.13
2018-01-27T10:20:45.394Z,44.30
2018-01-27T10:21:48.044Z,48.60
2018-01-27T10:22:50.490Z,44.92
2018-01-27T10:23:52.969Z,42.55
2018-01-27T10:24:55.492Z,47.88
2018-01-27T10:25:57.969Z,45.33
2018-01-27T10:27:01.612Z,47.35
2018-01-27T10:28:04.199Z,53.58
2018-01-27T10:29:06.704Z,52.50
2018-01-27T10:30:11.135Z,51.78
2018-01-27T10:31:14.396Z,52.15
2018-01-27T10:32:16.903Z,49.75
2018-01-27T10:33:19.406Z,57.35
2018-01-27T10:34:21.930Z,60.28
2018-01-27T10:35:25.184Z,63.65
2018-01-27T10:36:27.681Z,63.85
2018-01-27T10:37:30.954Z,64.25
2018-01-27T10:38:33.459Z,69.25
2018-01-27T10:39:35.941Z,76.07
2018-01-27T10:40:38.446Z,64.68
2018-01-27T10:41:40.995Z,63.00
2018-01-27T10:42:43.539Z,58.03
2018-01-27T10:43:46.033Z,61.40
2018-01-27T10:44:48.639Z,60.95
2018-01-27T10:45:51.180Z,58.38
2018-01-27T10:46:53.680Z,62.25
2018-01-27T10:47:56.180Z,59.72
2018-01-27T10:48:59.452Z,67.85
2018-01-27T10:50:01.940Z,58.85
2018-01-27T10:51:05.207Z,70.55
2018-01-27T10:52:07.824Z,63.95
2018-01-27T10:53:10.492Z,65.50
2018-01-27T10:54:13.240Z,73.65
2018-01-27T10:55:15.729Z,69.97
2018-01-27T10:56:18.986Z,74.25
2018-01-27T10:57:21.477Z,74.03
2018-01-27T10:58:24.831Z,70.95
2018-01-27T10:59:27.381Z,67.95
2018-01-27T11:00:29.876Z,75.30
2018-01-27T11:01:32.364Z,79.07
2018-01-27T11:02:34.859Z,76.70
2018-01-27T11:03:38.132Z,79.07
2018-01-27T11:04:41.755Z,66.43
2018-01-27T11:05:44.310Z,76.10
2018-01-27T11:06:47.569Z,70.95
2018-01-27T11:07:50.184Z,85.55
2018-01-27T11:08:52.698Z,78.97
2018-01-27T11:09:55.223Z,76.65
2018-01-27T11:10:58.486Z,71.90
2018-01-27T11:12:01.003Z,75.03
2018-01-27T11:13:03.503Z,80.57
2018-01-27T11:14:06.014Z,74.30
2018-01-27T11:15:09.283Z,71.78
2018-01-27T11:16:12.053Z,79.15
2018-01-27T11:17:14.586Z,77.07
2018-01-27T11:18:17.086Z,78.32
2018-01-27T11:19:19.594Z,71.55
2018-01-27T11:20:22.906Z,72.10
2018-01-27T11:21:25.400Z,79.57
2018-01-27T11:22:27.871Z,84.32
2018-01-27T11:23:30.374Z,81.60
2018-01-27T11:24:32.876Z,68.90
2018-01-27T11:25:37.154Z,74.25
2018-01-27T11:26:39.668Z,64.45
2018-01-27T11:27:42.200Z,71.72
2018-01-27T11:28:44.700Z,65.53
2018-01-27T11:29:47.216Z,74.47
2018-01-27T11:30:50.295Z,82.70
2018-01-27T11:31:52.789Z,82.70
2018-01-27T11:32:55.268Z,77.28
2018-01-27T11:33:57.867Z,73.50
2018-01-27T11:35:01.123Z,72.82
2018-01-27T11:36:03.657Z,72.95
2018-01-27T11:37:06.168Z,75.18
2018-01-27T11:38:08.647Z,78.37
2018-01-27T11:39:11.973Z,67.32
2018-01-27T11:40:14.494Z,67.53
2018-01-27T11:41:17.070Z,67.28
2018-01-27T11:42:19.556Z,64.53
2018-01-27T11:43:22.059Z,64.20
2018-01-27T11:44:24.548Z,61.88
2018-01-27T11:45:27.085Z,63.33
2018-01-27T11:46:30.353Z,55.88
2018-01-27T11:47:32.843Z,59.53
2018-01-27T11:48:35.344Z,43.10
2018-01-27T11:49:37.861Z,51.92
2018-01-27T11:50:40.374Z,43.83
2018-01-27T11:51:42.921Z,47.67
2018-01-27T11:52:46.309Z,46.80
2018-01-27T11:53:49.579Z,54.50
2018-01-27T11:54:52.049Z,44.80
2018-01-27T11:55:54.542Z,42.33
2018-01-27T11:56:58.142Z,38.85
2018-01-27T11:58:01.394Z,54.25
2018-01-27T11:59:03.890Z,37.90
2018-01-27T12:00:07.236Z,47.20
2018-01-27T12:01:09.907Z,46.30
2018-01-27T12:02:12.707Z,39.22
2018-01-27T12:03:15.207Z,42.33
2018-01-27T12:04:18.486Z,36.90
2018-01-27T12:05:20.984Z,37.75
2018-01-27T12:06:23.559Z,45.42
2018-01-27T12:08:40.651Z,41.80
2018-01-27T12:09:43.936Z,42.53
2018-01-27T12:10:47.258Z,40.67
2018-01-27T12:11:50.534Z,39.15
2018-01-27T12:12:53.074Z,40.50
2018-01-27T12:13:56.331Z,42.10
2018-01-27T12:14:58.842Z,36.30
2018-01-27T12:16:02.256Z,42.17
2018-01-27T12:17:04.831Z,38.38
2018-01-27T12:18:07.406Z,40.33
2018-01-27T12:19:10.079Z,38.13
2018-01-27T12:20:14.307Z,36.85
2018-01-27T12:21:16.826Z,36.53
2018-01-27T12:22:19.342Z,37.20
2018-01-27T12:23:22.640Z,38.22
2018-01-27T12:24:25.894Z,41.17
2018-01-27T12:25:28.406Z,39.53
2018-01-27T12:26:30.905Z,42.90
2018-01-27T12:27:33.417Z,50.67
2018-01-27T12:28:35.943Z,39.92
2018-01-27T12:29:38.462Z,36.92
2018-01-27T12:30:40.989Z,38.72
2018-01-27T12:31:43.533Z,40.47
2018-01-27T12:32:46.036Z,36.95
2018-01-27T12:33:48.577Z,46.00
2018-01-27T12:34:51.141Z,40.83
2018-01-27T12:35:53.660Z,45.97
2018-01-27T12:36:56.168Z,47.47
2018-01-27T12:37:59.830Z,47.47
2018-01-27T12:39:02.502Z,50.20
2018-01-27T12:40:05.019Z,47.75
2018-01-27T12:41:07.528Z,49.40
2018-01-27T12:42:10.297Z,53.22
2018-01-27T12:43:13.604Z,55.65
2018-01-27T12:44:16.121Z,47.03
2018-01-27T12:45:18.614Z,51.60
2018-01-27T12:46:21.143Z,45.95
2018-01-27T12:47:23.649Z,48.10
2018-01-27T12:48:26.206Z,48.22
2018-01-27T12:49:28.771Z,47.45
2018-01-27T12:50:31.377Z,44.58
2018-01-27T12:51:33.864Z,52.05
2018-01-27T12:52:37.387Z,46.88
2018-01-27T12:53:40.062Z,43.58
2018-01-27T12:54:42.582Z,54.28
2018-01-27T12:55:45.204Z,42.92
2018-01-27T12:56:47.713Z,39.55
2018-01-27T12:57:50.981Z,39.92
2018-01-27T12:58:53.546Z,44.15
2018-01-27T12:59:56.084Z,43.55
2018-01-27T13:00:58.921Z,38.75
2018-01-27T13:02:01.527Z,43.97
2018-01-27T13:03:04.078Z,42.53
2018-01-27T13:04:06.659Z,43.40
2018-01-27T13:05:09.208Z,42.65
2018-01-27T13:06:12.540Z,47.62
2018-01-27T13:07:15.096Z,43.10
2018-01-27T13:08:18.104Z,42.35
2018-01-27T13:09:20.581Z,40.25
2018-01-27T13:10:23.101Z,35.80
2018-01-27T13:11:25.585Z,37.03
2018-01-27T13:12:28.521Z,38.95
2018-01-27T13:13:31.791Z,41.25
2018-01-27T13:14:34.325Z,37.65
2018-01-27T13:15:36.976Z,39.38
2018-01-27T13:16:39.500Z,43.95
2018-01-27T13:17:42.079Z,37.03
2018-01-27T13:18:44.580Z,36.75
2018-01-27T13:19:47.061Z,36.08
2018-01-27T13:20:49.668Z,35.65
2018-01-27T13:21:52.181Z,38.00
2018-01-27T13:22:55.480Z,41.20
2018-01-27T13:23:57.972Z,37.17
2018-01-27T13:25:00.481Z,32.00
2018-01-27T13:26:02.993Z,38.30
2018-01-27T13:27:06.280Z,41.60
2018-01-27T13:28:08.780Z,37.15